Time;durP1;ratioP1;P1;durP2;ratioP2;P2;SDS_P1;SDS_P2;PMS_P1;PMS_P2;Temp;Humidity;BMP_temperature;BMP_pressure;BME280_temperature;BME280_humidity;BME280_pressure;Samples;Min_cycle;Max_cycle;Signal;HPM_P1;HPM_P2
2021/08/04 00:00:09;;;;;;;33.90;25.63;;;17.60;99.90;;;;;;5056610;28;20584;-67
2021/08/04 00:02:35;;;;;;;26.15;23.27;;;17.60;99.90;;;;;;5047815;28;20017;-67
2021/08/04 00:05:02;;;;;;;32.13;25.30;;;17.50;99.90;;;;;;5053142;28;20029;-67
2021/08/04 00:07:27;;;;;;;28.88;25.45;;;17.60;99.90;;;;;;5052807;28;20025;-67
2021/08/04 00:09:53;;;;;;;34.47;24.88;;;17.60;99.90;;;;;;5057721;28;20462;-68
2021/08/04 00:12:19;;;;;;;32.75;25.67;;;17.60;99.90;;;;;;5047811;28;20123;-70
2021/08/04 00:14:44;;;;;;;36.92;29.25;;;17.60;99.90;;;;;;5054001;28;20025;-69
2021/08/04 00:17:10;;;;;;;32.88;26.65;;;17.50;99.90;;;;;;5052394;28;20075;-67
2021/08/04 00:19:36;;;;;;;33.22;27.15;;;17.50;99.90;;;;;;5052912;28;20037;-66
2021/08/04 00:22:02;;;;;;;36.78;27.08;;;17.60;99.90;;;;;;5056310;28;20013;-66
2021/08/04 00:24:28;;;;;;;33.22;28.58;;;17.60;99.90;;;;;;5048794;28;20556;-67
2021/08/04 00:26:54;;;;;;;31.98;28.00;;;17.60;99.90;;;;;;5053667;28;20028;-67
2021/08/04 00:29:20;;;;;;;42.75;31.83;;;17.60;99.90;;;;;;5056352;28;20033;-67
2021/08/04 00:31:46;;;;;;;35.30;29.70;;;17.60;99.90;;;;;;5052734;28;20029;-67
2021/08/04 00:34:11;;;;;;;50.30;35.17;;;17.60;99.90;;;;;;5053811;28;20033;-66
2021/08/04 00:36:37;;;;;;;37.78;29.42;;;17.40;99.90;;;;;;5057046;28;20027;-66
2021/08/04 00:39:03;;;;;;;41.00;32.85;;;17.40;99.90;;;;;;5052000;28;20036;-66
2021/08/04 00:41:36;;;;;;;36.33;30.48;;;17.30;99.90;;;;;;5055679;28;20036;-66
2021/08/04 00:44:02;;;;;;;41.20;31.25;;;17.30;99.90;;;;;;5053323;28;20695;-67
2021/08/04 00:46:27;;;;;;;36.97;29.88;;;17.40;99.90;;;;;;5053381;28;20101;-67
2021/08/04 00:48:53;;;;;;;43.75;31.88;;;17.30;99.90;;;;;;5047174;28;20024;-66
2021/08/04 00:51:18;;;;;;;36.03;30.63;;;17.40;99.90;;;;;;5046381;28;20025;-66
2021/08/04 00:53:44;;;;;;;36.95;30.98;;;17.40;99.90;;;;;;5048653;28;20033;-67
2021/08/04 00:56:10;;;;;;;37.95;30.20;;;17.40;99.90;;;;;;5051683;28;20033;-66
2021/08/04 00:58:39;;;;;;;40.58;32.05;;;17.40;99.90;;;;;;5047610;28;20500;-66
2021/08/04 01:01:12;;;;;;;40.28;31.67;;;17.40;99.90;;;;;;5044768;28;20064;-67
2021/08/04 01:03:44;;;;;;;;;;;17.40;99.90;;;;;;5054120;28;20487;-66
2021/08/04 01:06:42;;;;;;;46.08;35.25;;;17.40;99.90;;;;;;5054391;28;19912;-66
2021/08/04 01:09:10;;;;;;;39.67;30.77;;;17.40;99.90;;;;;;5058825;28;20041;-66
2021/08/04 01:11:38;;;;;;;45.60;33.63;;;17.40;99.90;;;;;;5050129;28;20032;-66
2021/08/04 01:14:19;;;;;;;45.97;33.13;;;17.40;99.90;;;;;;5049928;28;20036;-66
2021/08/04 01:16:46;;;;;;;45.28;33.35;;;17.40;99.90;;;;;;5050249;28;20123;-66
2021/08/04 01:19:22;;;;;;;54.53;37.50;;;17.20;99.90;;;;;;5048852;28;20542;-66
2021/08/04 01:21:51;;;;;;;35.88;28.23;;;17.20;99.90;;;;;;5052005;28;20021;-67
2021/08/04 01:24:30;;;;;;;36.78;30.00;;;17.20;99.90;;;;;;5050597;28;20033;-66
2021/08/04 01:26:58;;;;;;;42.42;31.73;;;17.20;99.90;;;;;;5055127;28;20040;-66
2021/08/04 01:29:25;;;;;;;35.22;30.33;;;17.20;99.90;;;;;;5051112;28;20090;-66
2021/08/04 01:31:56;;;;;;;42.10;32.35;;;17.20;99.90;;;;;;5049348;28;20547;-66
2021/08/04 01:34:24;;;;;;;41.45;31.73;;;17.20;99.90;;;;;;5055903;28;20481;-66
2021/08/04 01:36:50;;;;;;;36.30;30.45;;;17.20;99.90;;;;;;5052225;28;20082;-67
2021/08/04 01:39:18;;;;;;;40.42;32.20;;;17.10;99.90;;;;;;5049512;28;20428;-68
2021/08/04 01:41:46;;;;;;;36.70;31.70;;;17.10;99.90;;;;;;5055143;28;20061;-67
2021/08/04 01:44:14;;;;;;;50.13;36.33;;;17.00;99.90;;;;;;5045651;28;20112;-67
2021/08/04 01:46:41;;;;;;;45.72;34.42;;;17.10;99.90;;;;;;5052005;28;20037;-69
2021/08/04 01:49:09;;;;;;;41.80;32.75;;;17.10;99.90;;;;;;5050502;28;20024;-68
2021/08/04 01:51:36;;;;;;;37.88;31.58;;;17.10;99.90;;;;;;5046756;28;20535;-68
2021/08/04 01:54:03;;;;;;;41.28;32.53;;;17.00;99.90;;;;;;5052959;28;20025;-69
2021/08/04 01:56:29;;;;;;;62.10;40.97;;;17.10;99.90;;;;;;5053631;28;20112;-68
2021/08/04 01:58:54;;;;;;;70.32;41.17;;;16.90;99.90;;;;;;5047881;28;20124;-68
2021/08/04 02:01:25;;;;;;;45.35;34.85;;;16.70;99.90;;;;;;5046011;28;20033;-68
2021/08/04 02:03:51;;;;;;;45.20;34.53;;;16.80;99.90;;;;;;5050293;28;20385;-68
2021/08/04 02:06:42;;;;;;;38.97;32.92;;;16.90;99.90;;;;;;5048472;28;20099;-67
2021/08/04 02:09:23;;;;;;;46.78;35.97;;;16.80;99.90;;;;;;5053639;28;20493;-68
2021/08/04 02:11:58;;;;;;;62.10;40.53;;;16.70;99.90;;;;;;5049587;28;20021;-69
2021/08/04 02:14:33;;;;;;;40.60;32.22;;;16.70;99.90;;;;;;5039457;28;20092;-69
2021/08/04 02:17:09;;;;;;;45.13;36.00;;;16.70;99.90;;;;;;5048022;28;20013;-68
2021/08/04 02:20:02;;;;;;;48.97;38.38;;;16.70;99.90;;;;;;5045974;28;20486;-68
2021/08/04 02:22:47;;;;;;;45.90;36.63;;;16.80;99.90;;;;;;5051680;28;20515;-68
2021/08/04 02:25:16;;;;;;;48.03;36.25;;;16.80;99.90;;;;;;5048214;28;20029;-69
2021/08/04 02:27:43;;;;;;;46.15;36.05;;;16.80;99.90;;;;;;5045460;28;20029;-67
2021/08/04 02:30:13;;;;;;;49.50;37.88;;;16.80;99.90;;;;;;5054529;28;20484;-69
2021/08/04 02:32:39;;;;;;;46.20;36.13;;;16.80;99.90;;;;;;5051466;28;20131;-68
2021/08/04 02:35:06;;;;;;;46.88;35.38;;;16.80;99.90;;;;;;5048561;28;20499;-69
2021/08/04 02:37:35;;;;;;;42.95;33.53;;;16.70;99.90;;;;;;5054539;28;20096;-69
2021/08/04 02:40:03;;;;;;;46.38;36.38;;;16.70;99.90;;;;;;5063331;28;20052;-68
2021/08/04 02:42:29;;;;;;;40.13;32.75;;;16.70;99.90;;;;;;5055099;28;20078;-68
2021/08/04 02:44:54;;;;;;;40.65;31.65;;;16.70;99.90;;;;;;5058537;28;20032;-68
2021/08/04 02:47:22;;;;;;;43.22;33.70;;;16.70;99.90;;;;;;5057150;28;20017;-67
2021/08/04 02:49:47;;;;;;;40.53;31.13;;;16.70;99.90;;;;;;5065171;28;20162;-69
2021/08/04 02:52:17;;;;;;;41.80;33.80;;;16.60;99.90;;;;;;5054685;28;20107;-68
2021/08/04 02:54:44;;;;;;;41.72;33.95;;;16.60;99.90;;;;;;5054786;28;20037;-68
2021/08/04 02:57:11;;;;;;;42.97;31.85;;;16.50;99.90;;;;;;5058730;28;20021;-68
2021/08/04 02:59:36;;;;;;;38.53;30.92;;;16.50;99.90;;;;;;5056667;28;20120;-68
2021/08/04 03:02:02;;;;;;;46.53;33.20;;;16.50;99.90;;;;;;5054218;28;20413;-68
2021/08/04 03:04:28;;;;;;;40.40;31.17;;;16.50;99.90;;;;;;5059101;28;20025;-68
2021/08/04 03:06:54;;;;;;;40.35;31.77;;;16.50;99.90;;;;;;5050638;28;20075;-68
2021/08/04 03:09:19;;;;;;;38.97;31.48;;;16.50;99.90;;;;;;5066569;28;20032;-68
2021/08/04 03:11:45;;;;;;;35.05;29.80;;;16.50;99.90;;;;;;5060008;28;20684;-68
2021/08/04 03:14:10;;;;;;;40.80;30.10;;;16.50;99.90;;;;;;5051194;28;20029;-68
2021/08/04 03:16:36;;;;;;;34.03;27.80;;;16.50;99.90;;;;;;5058461;28;20025;-68
2021/08/04 03:19:02;;;;;;;39.97;30.73;;;16.40;99.90;;;;;;5067111;28;20062;-68
2021/08/04 03:21:28;;;;;;;35.28;28.02;;;16.30;99.90;;;;;;5059399;28;20081;-68
2021/08/04 03:23:53;;;;;;;34.42;28.27;;;16.30;99.90;;;;;;5055788;28;20432;-68
2021/08/04 03:26:19;;;;;;;36.53;28.27;;;16.30;99.90;;;;;;5062532;28;20090;-67
2021/08/04 03:28:45;;;;;;;42.45;30.40;;;16.30;99.90;;;;;;5052543;28;20076;-67
2021/08/04 03:31:10;;;;;;;38.55;28.75;;;16.30;99.90;;;;;;5055620;28;20372;-67
2021/08/04 03:33:36;;;;;;;37.50;27.65;;;16.30;99.90;;;;;;5060980;28;20389;-67
2021/08/04 03:36:02;;;;;;;35.63;28.30;;;16.10;99.90;;;;;;5059791;28;20032;-67
2021/08/04 03:38:27;;;;;;;41.38;29.42;;;16.00;99.90;;;;;;5064846;28;20480;-67
2021/08/04 03:40:53;;;;;;;40.35;30.42;;;16.00;99.90;;;;;;5054125;28;20025;-68
2021/08/04 03:43:19;;;;;;;37.10;30.33;;;16.10;99.90;;;;;;5057076;28;20057;-67
2021/08/04 03:45:44;;;;;;;37.95;28.73;;;16.10;99.90;;;;;;5063162;28;20040;-67
2021/08/04 03:48:10;;;;;;;40.88;28.45;;;16.10;99.90;;;;;;5058778;28;20048;-67
2021/08/04 03:50:35;;;;;;;43.70;32.35;;;16.00;99.90;;;;;;5045688;28;20424;-67
2021/08/04 03:53:01;;;;;;;42.92;30.90;;;16.00;99.90;;;;;;5061522;28;20496;-67
2021/08/04 03:55:27;;;;;;;36.35;28.85;;;16.00;99.90;;;;;;5050464;28;20030;-67
2021/08/04 03:57:52;;;;;;;39.55;31.75;;;16.00;99.90;;;;;;5057203;28;20029;-68
2021/08/04 04:00:18;;;;;;;38.08;28.80;;;16.00;99.90;;;;;;5064685;28;20028;-67
2021/08/04 04:02:44;;;;;;;37.17;29.90;;;16.00;99.90;;;;;;5053958;28;20025;-68
2021/08/04 04:05:10;;;;;;;49.35;31.58;;;15.90;99.90;;;;;;5050988;28;20354;-67
2021/08/04 04:07:36;;;;;;;33.00;26.40;;;15.90;99.90;;;;;;5062797;28;20104;-67
2021/08/04 04:10:02;;;;;;;36.55;27.20;;;15.90;99.90;;;;;;5066250;28;20103;-68
2021/08/04 04:12:29;;;;;;;36.75;26.45;;;15.90;99.90;;;;;;5057210;28;20032;-68
2021/08/04 04:14:55;;;;;;;30.45;26.00;;;15.80;99.90;;;;;;5055090;28;20083;-68
2021/08/04 04:17:21;;;;;;;34.72;27.95;;;15.80;99.90;;;;;;5057799;28;20028;-68
2021/08/04 04:19:47;;;;;;;37.45;28.67;;;15.80;99.90;;;;;;5065360;28;20040;-68
2021/08/04 04:22:12;;;;;;;35.78;27.73;;;15.80;99.90;;;;;;5059127;28;20027;-68
2021/08/04 04:24:38;;;;;;;36.58;25.30;;;15.80;99.90;;;;;;5061902;28;20029;-67
2021/08/04 04:27:04;;;;;;;37.40;26.23;;;15.80;99.90;;;;;;5044818;28;20025;-67
2021/08/04 04:29:30;;;;;;;34.58;26.92;;;15.80;99.90;;;;;;5060326;28;20020;-68
2021/08/04 04:31:55;;;;;;;31.20;25.08;;;15.70;99.90;;;;;;5057217;28;20040;-69
2021/08/04 04:34:21;;;;;;;31.30;25.90;;;15.70;99.90;;;;;;5059313;28;20092;-69
2021/08/04 04:36:47;;;;;;;37.35;28.15;;;15.80;99.90;;;;;;5047638;28;20100;-68
2021/08/04 04:39:12;;;;;;;36.85;26.40;;;15.80;99.90;;;;;;5059919;28;20435;-67
2021/08/04 04:41:38;;;;;;;38.17;27.60;;;15.70;99.90;;;;;;5061578;28;20063;-67
2021/08/04 04:44:04;;;;;;;33.70;25.98;;;15.70;99.90;;;;;;5050760;28;20037;-67
2021/08/04 04:46:30;;;;;;;37.50;28.55;;;15.80;99.90;;;;;;5056463;28;20143;-67
2021/08/04 04:48:56;;;;;;;34.28;26.85;;;15.80;99.90;;;;;;5063797;28;20493;-68
2021/08/04 04:51:21;;;;;;;36.22;28.00;;;15.80;99.90;;;;;;5060699;28;20112;-68
2021/08/04 04:53:47;;;;;;;38.40;26.05;;;15.80;99.90;;;;;;5055092;28;20370;-68
2021/08/04 04:56:13;;;;;;;32.70;26.00;;;15.90;99.90;;;;;;5058247;28;20036;-68
2021/08/04 04:58:38;;;;;;;31.63;25.67;;;15.90;99.90;;;;;;5060311;28;20036;-67
2021/08/04 05:01:04;;;;;;;32.08;25.10;;;15.90;99.90;;;;;;5050097;28;20021;-67
2021/08/04 05:03:30;;;;;;;43.58;30.13;;;15.90;99.90;;;;;;5054559;28;20060;-68
2021/08/04 05:05:55;;;;;;;38.47;26.05;;;15.90;99.90;;;;;;5052504;28;20500;-68
2021/08/04 05:08:21;;;;;;;39.50;28.90;;;15.90;99.90;;;;;;5050777;28;20029;-68
2021/08/04 05:10:47;;;;;;;31.42;25.33;;;16.00;99.90;;;;;;5064604;28;20025;-67
2021/08/04 05:13:12;;;;;;;34.90;25.60;;;16.00;99.90;;;;;;5054471;28;20025;-69
2021/08/04 05:15:38;;;;;;;43.20;28.83;;;16.00;99.90;;;;;;5049393;28;20112;-68
2021/08/04 05:18:03;;;;;;;29.55;24.15;;;16.00;99.90;;;;;;5053066;28;20051;-68
2021/08/04 05:20:30;;;;;;;30.90;23.25;;;16.00;99.90;;;;;;5059757;28;20062;-68
2021/08/04 05:22:56;;;;;;;35.90;26.33;;;16.10;99.90;;;;;;5059518;28;20074;-68
2021/08/04 05:25:23;;;;;;;33.15;24.63;;;16.20;99.90;;;;;;5050426;28;20485;-68
2021/08/04 05:27:48;;;;;;;34.75;24.80;;;16.10;99.90;;;;;;5067788;28;20096;-68
2021/08/04 05:30:15;;;;;;;31.30;25.35;;;16.10;99.90;;;;;;5060899;28;20112;-68
2021/08/04 05:32:42;;;;;;;35.08;25.65;;;16.10;99.90;;;;;;5051175;28;20033;-69
2021/08/04 05:35:08;;;;;;;30.98;22.95;;;16.20;99.90;;;;;;5051686;28;20032;-67
2021/08/04 05:37:34;;;;;;;29.80;21.58;;;16.20;99.90;;;;;;5058788;28;20123;-68
2021/08/04 05:39:59;;;;;;;33.88;24.80;;;16.30;99.90;;;;;;5050926;28;20499;-67
2021/08/04 05:42:25;;;;;;;28.48;23.65;;;16.30;99.90;;;;;;5055296;28;20029;-69
2021/08/04 05:44:50;;;;;;;33.38;22.13;;;16.40;99.90;;;;;;5052198;28;20030;-67
2021/08/04 05:47:16;;;;;;;33.67;26.95;;;16.50;99.90;;;;;;5056952;28;20028;-67
2021/08/04 05:49:42;;;;;;;31.63;22.80;;;16.60;99.90;;;;;;5061492;28;20025;-68
2021/08/04 05:52:08;;;;;;;36.83;27.65;;;16.60;99.90;;;;;;5052503;28;20122;-67
2021/08/04 05:54:34;;;;;;;39.67;28.33;;;16.70;99.90;;;;;;5053075;28;20033;-68
2021/08/04 05:56:59;;;;;;;31.92;25.65;;;16.80;99.90;;;;;;5059592;28;20025;-68
2021/08/04 05:59:25;;;;;;;39.00;28.52;;;16.80;99.90;;;;;;5047145;28;20041;-68
2021/08/04 06:01:50;;;;;;;31.02;24.92;;;16.90;99.90;;;;;;5049518;28;20021;-67
2021/08/04 06:04:16;;;;;;;38.22;28.17;;;17.00;99.90;;;;;;5061394;28;20469;-68
2021/08/04 06:06:42;;;;;;;37.08;29.40;;;17.00;99.90;;;;;;5054306;28;20021;-67
2021/08/04 06:09:07;;;;;;;44.72;31.00;;;17.00;99.90;;;;;;5053163;28;20496;-68
2021/08/04 06:11:33;;;;;;;38.88;30.95;;;17.10;99.90;;;;;;5061545;28;20039;-68
2021/08/04 06:13:59;;;;;;;37.17;28.08;;;17.10;99.90;;;;;;5054317;28;20041;-68
2021/08/04 06:16:24;;;;;;;41.42;31.00;;;17.20;99.90;;;;;;5057595;28;20028;-68
2021/08/04 06:18:50;;;;;;;38.63;31.33;;;17.20;99.90;;;;;;5058489;28;20523;-68
2021/08/04 06:21:16;;;;;;;43.75;33.40;;;17.30;99.90;;;;;;5046908;28;20025;-68
2021/08/04 06:23:41;;;;;;;39.90;29.08;;;17.30;99.90;;;;;;5059092;28;20392;-67
2021/08/04 06:26:07;;;;;;;52.10;35.83;;;17.30;99.90;;;;;;5065617;28;20112;-68
2021/08/04 06:28:33;;;;;;;43.42;31.13;;;17.30;99.90;;;;;;5056970;28;20023;-68
2021/08/04 06:30:58;;;;;;;44.15;31.15;;;17.40;99.90;;;;;;5046596;28;20047;-68
2021/08/04 06:33:24;;;;;;;37.50;28.42;;;17.40;99.90;;;;;;5053201;28;20032;-68
2021/08/04 06:35:50;;;;;;;39.78;29.55;;;17.50;99.90;;;;;;5058364;28;20024;-68
2021/08/04 06:38:15;;;;;;;36.58;27.00;;;17.60;99.90;;;;;;5047785;28;20083;-69
2021/08/04 06:40:41;;;;;;;38.05;27.52;;;17.60;99.90;;;;;;5045954;28;20044;-68
2021/08/04 06:43:07;;;;;;;37.80;29.92;;;17.60;99.90;;;;;;5049839;28;20108;-68
2021/08/04 06:45:32;;;;;;;34.63;24.25;;;17.70;99.90;;;;;;5044871;28;20032;-68
2021/08/04 06:47:58;;;;;;;29.10;24.10;;;17.70;99.90;;;;;;5049665;28;20025;-68
2021/08/04 06:50:26;;;;;;;30.15;24.15;;;17.80;99.90;;;;;;5054572;28;20032;-68
2021/08/04 06:52:53;;;;;;;25.33;20.73;;;17.90;99.90;;;;;;5045813;28;20017;-68
2021/08/04 06:55:18;;;;;;;29.73;23.40;;;18.00;99.90;;;;;;5048216;28;20060;-69
2021/08/04 06:57:44;;;;;;;24.55;20.15;;;18.10;99.90;;;;;;5050599;28;20465;-68
2021/08/04 07:00:10;;;;;;;33.80;21.88;;;18.10;99.90;;;;;;5044439;28;20037;-68
2021/08/04 07:02:36;;;;;;;29.45;22.30;;;18.20;99.90;;;;;;5056394;28;20017;-68
2021/08/04 07:05:01;;;;;;;28.02;21.95;;;18.20;99.90;;;;;;5042284;28;20030;-68
2021/08/04 07:07:27;;;;;;;25.30;19.88;;;18.20;99.90;;;;;;5051548;28;20025;-68
2021/08/04 07:09:53;;;;;;;28.35;21.15;;;18.20;99.90;;;;;;5053990;28;20484;-68
2021/08/04 07:12:18;;;;;;;28.52;22.05;;;18.20;99.90;;;;;;5050088;28;20060;-69
2021/08/04 07:14:44;;;;;;;32.03;22.42;;;18.30;99.90;;;;;;5063077;28;20058;-69
2021/08/04 07:17:10;;;;;;;24.70;20.50;;;18.40;99.90;;;;;;5056463;28;20022;-68
2021/08/04 07:19:36;;;;;;;27.73;17.95;;;18.30;99.90;;;;;;5046945;28;20037;-69
2021/08/04 07:22:01;;;;;;;26.50;20.60;;;18.50;99.90;;;;;;5057458;28;20089;-70
2021/08/04 07:24:27;;;;;;;22.90;19.02;;;18.60;99.90;;;;;;5049731;28;20033;-69
2021/08/04 07:26:53;;;;;;;29.50;20.55;;;18.70;99.90;;;;;;5055054;28;20017;-68
2021/08/04 07:29:19;;;;;;;26.92;17.88;;;18.70;99.90;;;;;;5055757;28;20372;-69
2021/08/04 07:31:46;;;;;;;23.95;18.52;;;18.70;99.90;;;;;;5057966;28;20029;-68
2021/08/04 07:34:14;;;;;;;27.52;18.17;;;18.80;99.90;;;;;;5056461;28;20025;-68
2021/08/04 07:36:40;;;;;;;18.73;15.20;;;18.90;99.90;;;;;;5058351;28;20496;-69
2021/08/04 07:39:05;;;;;;;17.83;15.93;;;19.00;99.90;;;;;;5058109;28;20053;-68
2021/08/04 07:41:31;;;;;;;18.73;15.95;;;19.00;99.90;;;;;;5060000;28;20488;-68
2021/08/04 07:43:57;;;;;;;18.40;14.02;;;19.10;99.90;;;;;;5065295;28;20447;-68
2021/08/04 07:46:23;;;;;;;22.08;15.93;;;19.20;99.90;;;;;;5064013;28;20128;-68
2021/08/04 07:48:49;;;;;;;17.80;12.82;;;19.30;99.90;;;;;;5054152;28;20024;-68
2021/08/04 07:51:15;;;;;;;13.48;12.13;;;19.40;99.90;;;;;;5052389;28;20096;-68
2021/08/04 07:53:42;;;;;;;16.05;11.50;;;19.40;99.90;;;;;;5048778;28;20040;-69
2021/08/04 07:56:08;;;;;;;13.55;11.05;;;19.40;99.90;;;;;;5059881;28;20029;-68
2021/08/04 07:58:34;;;;;;;16.27;12.38;;;19.40;99.90;;;;;;5049626;28;20082;-67
2021/08/04 08:01:00;;;;;;;17.10;11.38;;;19.60;99.90;;;;;;5065237;28;20032;-68
2021/08/04 08:03:25;;;;;;;16.23;11.10;;;19.60;99.90;;;;;;5064288;28;20081;-68
2021/08/04 08:05:51;;;;;;;18.10;11.98;;;19.70;99.90;;;;;;5052568;28;20103;-68
2021/08/04 08:08:17;;;;;;;16.88;11.18;;;19.70;99.90;;;;;;5056078;28;20020;-68
2021/08/04 08:10:43;;;;;;;16.05;11.52;;;19.80;99.90;;;;;;5055647;28;20096;-68
2021/08/04 08:13:10;;;;;;;12.07;10.25;;;19.90;99.90;;;;;;5062543;28;20052;-68
2021/08/04 08:15:36;;;;;;;12.20;9.55;;;20.00;99.90;;;;;;5053124;28;20397;-67
2021/08/04 08:18:09;;;;;;;13.30;10.40;;;20.00;99.90;;;;;;5057500;28;20482;-68
2021/08/04 08:20:35;;;;;;;13.43;10.13;;;20.00;99.90;;;;;;5058947;28;20048;-68
2021/08/04 08:23:01;;;;;;;10.52;7.72;;;20.20;99.90;;;;;;5061446;28;20025;-68
2021/08/04 08:25:27;;;;;;;10.23;9.02;;;20.10;99.90;;;;;;5049644;28;20036;-68
2021/08/04 08:27:53;;;;;;;12.30;9.05;;;20.30;99.90;;;;;;5046443;28;20583;-67
2021/08/04 08:30:18;;;;;;;12.18;9.80;;;20.20;99.90;;;;;;5053920;28;20099;-67
2021/08/04 08:32:48;;;;;;;12.93;9.85;;;20.30;99.90;;;;;;5055016;28;20095;-68
2021/08/04 08:35:15;;;;;;;11.73;9.05;;;20.40;99.90;;;;;;5049391;28;20024;-68
2021/08/04 08:37:41;;;;;;;14.38;8.77;;;20.30;99.90;;;;;;5054847;28;20051;-68
2021/08/04 08:40:08;;;;;;;13.98;9.65;;;20.40;99.90;;;;;;5049728;28;20497;-68
2021/08/04 08:42:34;;;;;;;12.35;7.90;;;20.50;99.90;;;;;;5055485;28;20084;-68
2021/08/04 08:45:00;;;;;;;14.45;9.73;;;20.50;99.90;;;;;;5051571;28;20021;-68
2021/08/04 08:47:26;;;;;;;10.70;9.55;;;20.50;99.90;;;;;;5053935;28;20029;-68
2021/08/04 08:49:52;;;;;;;13.98;10.48;;;20.60;99.90;;;;;;5051992;28;20112;-67
2021/08/04 08:52:18;;;;;;;10.43;9.27;;;20.70;99.90;;;;;;5047015;28;20041;-70
2021/08/04 08:54:44;;;;;;;12.18;8.32;;;20.70;99.90;;;;;;5050746;28;20082;-68
2021/08/04 08:57:10;;;;;;;10.60;8.32;;;20.80;99.90;;;;;;5055201;28;20035;-69
2021/08/04 08:59:35;;;;;;;12.00;9.70;;;20.90;99.90;;;;;;5054450;28;20693;-68
2021/08/04 09:02:04;;;;;;;9.93;7.18;;;21.10;99.90;;;;;;5046858;28;20029;-69
2021/08/04 09:04:29;;;;;;;9.77;8.57;;;21.30;99.90;;;;;;5054843;28;20416;-69
2021/08/04 09:07:00;;;;;;;13.30;7.82;;;21.40;99.90;;;;;;5049757;28;20022;-70
2021/08/04 09:09:30;;;;;;;9.20;7.35;;;21.50;99.90;;;;;;5054726;28;20025;-68
2021/08/04 09:12:02;;;;;;;9.15;8.20;;;21.50;99.90;;;;;;5049268;28;20026;-68
2021/08/04 09:14:30;;;;;;;9.00;6.95;;;21.70;99.90;;;;;;5049783;28;20091;-67
2021/08/04 09:17:03;;;;;;;6.93;6.20;;;21.80;99.90;;;;;;5049364;28;20420;-68
2021/08/04 09:19:30;;;;;;;9.38;7.20;;;22.00;99.90;;;;;;5045826;28;20036;-68
2021/08/04 09:22:09;;;;;;;9.55;7.90;;;22.00;99.90;;;;;;5054245;28;20021;-68
2021/08/04 09:24:58;;;;;;;9.55;7.03;;;22.10;99.90;;;;;;5047033;28;20457;-69
2021/08/04 09:27:50;;;;;;;10.30;7.57;;;22.20;99.90;;;;;;5054328;28;20032;-69
2021/08/04 09:30:28;;;;;;;10.38;7.13;;;22.50;99.90;;;;;;5052898;28;20057;-69
2021/08/04 09:33:10;;;;;;;8.80;7.93;;;22.50;99.90;;;;;;5055785;28;20024;-69
2021/08/04 09:35:42;;;;;;;9.50;7.85;;;22.40;99.90;;;;;;5060651;28;20377;-69
2021/08/04 09:38:08;;;;;;;9.27;6.93;;;22.00;99.90;;;;;;5057959;28;20477;-69
2021/08/04 09:40:33;;;;;;;11.07;6.82;;;21.80;99.90;;;;;;5064106;28;20088;-68
2021/08/04 09:43:00;;;;;;;9.35;7.32;;;21.80;99.90;;;;;;5058608;28;20016;-68
2021/08/04 09:45:49;;;;;;;8.90;6.55;;;21.80;99.90;;;;;;5047870;28;20482;-68
2021/08/04 09:48:16;;;;;;;11.13;8.18;;;21.70;99.90;;;;;;5057643;28;20013;-68
2021/08/04 09:50:48;;;;;;;7.68;6.80;;;21.80;99.90;;;;;;5059317;28;20040;-68
2021/08/04 09:53:22;;;;;;;5.80;5.07;;;21.80;99.90;;;;;;5045403;28;20546;-68
2021/08/04 09:56:04;;;;;;;7.63;5.50;;;22.00;99.90;;;;;;5053917;28;20139;-67
2021/08/04 09:58:30;;;;;;;6.72;5.40;;;22.30;99.90;;;;;;5048400;28;20086;-68
2021/08/04 10:00:58;;;;;;;7.47;4.78;;;22.20;99.90;;;;;;5054361;28;20096;-68
2021/08/04 10:03:24;;;;;;;5.72;4.72;;;22.10;99.90;;;;;;5046493;28;20035;-67
2021/08/04 10:05:49;;;;;;;8.77;5.43;;;22.30;99.90;;;;;;5052648;28;20028;-68
2021/08/04 10:08:15;;;;;;;8.80;5.03;;;22.40;99.90;;;;;;5055257;28;20080;-68
2021/08/04 10:10:50;;;;;;;6.55;4.95;;;22.30;99.90;;;;;;5048081;28;20028;-68
2021/08/04 10:13:18;;;;;;;11.77;6.40;;;22.60;99.90;;;;;;5051473;28;20095;-68
2021/08/04 10:15:52;;;;;;;7.25;6.30;;;22.50;99.90;;;;;;5054836;28;20032;-67
2021/08/04 10:18:21;;;;;;;7.95;5.47;;;22.40;99.90;;;;;;5053835;28;20037;-67
2021/08/04 10:20:51;;;;;;;7.43;5.25;;;22.30;99.90;;;;;;5045133;28;20036;-67
2021/08/04 10:23:18;;;;;;;9.43;6.88;;;22.30;99.90;;;;;;5050957;28;20485;-69
2021/08/04 10:25:45;;;;;;;6.45;5.72;;;22.60;99.90;;;;;;5054180;28;20033;-69
2021/08/04 10:28:12;;;;;;;8.52;5.55;;;22.60;99.90;;;;;;5040439;28;20086;-68
2021/08/04 10:30:38;;;;;;;5.93;4.55;;;22.50;99.90;;;;;;5047908;28;20031;-68
2021/08/04 10:33:05;;;;;;;7.03;4.75;;;22.70;99.90;;;;;;5052783;28;20028;-67
2021/08/04 10:35:35;;;;;;;4.32;3.88;;;23.00;99.90;;;;;;5048345;28;20028;-67
2021/08/04 10:38:01;;;;;;;9.70;4.38;;;23.20;99.90;;;;;;5052755;28;20385;-67
2021/08/04 10:40:27;;;;;;;8.05;4.90;;;23.20;99.90;;;;;;5064820;28;20047;-68
2021/08/04 10:42:53;;;;;;;7.75;5.13;;;23.40;99.90;;;;;;5046874;28;20381;-67
2021/08/04 10:45:28;;;;;;;8.07;4.53;;;23.60;99.90;;;;;;5058214;28;20572;-67
2021/08/04 10:47:57;;;;;;;8.07;5.53;;;23.50;99.90;;;;;;5055325;28;20083;-68
2021/08/04 10:50:23;;;;;;;8.35;5.00;;;23.50;99.90;;;;;;5045724;28;20389;-67
2021/08/04 10:52:58;;;;;;;10.10;6.07;;;23.60;99.90;;;;;;5056700;28;20025;-67
2021/08/04 10:55:25;;;;;;;7.38;6.55;;;23.60;99.20;;;;;;5052690;28;20037;-68
2021/08/04 10:58:06;;;;;;;6.43;5.35;;;23.80;99.90;;;;;;5048332;28;20385;-71
2021/08/04 11:00:36;;;;;;;6.97;5.43;;;24.00;99.90;;;;;;5055304;28;20481;-70
2021/08/04 11:03:29;;;;;;;7.35;5.05;;;23.80;99.90;;;;;;5048395;28;20072;-69
2021/08/04 11:06:10;;;;;;;7.53;5.35;;;23.80;99.90;;;;;;5057054;28;20111;-71
2021/08/04 11:08:36;;;;;;;9.00;6.65;;;23.40;99.90;;;;;;5052362;28;20087;-69
2021/08/04 11:11:02;;;;;;;9.43;6.60;;;23.30;99.90;;;;;;5053561;28;20477;-68
2021/08/04 11:13:45;;;;;;;5.72;5.22;;;23.30;99.90;;;;;;5060703;28;20012;-70
2021/08/04 11:16:33;;;;;;;6.72;6.00;;;23.20;99.90;;;;;;5058327;28;20033;-68
2021/08/04 11:19:10;;;;;;;6.25;5.40;;;23.20;99.90;;;;;;5052877;28;20072;-68
2021/08/04 11:21:37;;;;;;;6.07;4.10;;;23.40;99.90;;;;;;5063901;28;20029;-70
2021/08/04 11:24:06;;;;;;;4.55;3.33;;;23.40;99.90;;;;;;5057962;28;20064;-69
2021/08/04 11:26:36;;;;;;;7.35;5.22;;;23.30;99.90;;;;;;5056173;28;20044;-69
2021/08/04 11:29:06;;;;;;;6.03;5.53;;;23.20;99.90;;;;;;5058372;28;20024;-68
2021/08/04 11:31:32;;;;;;;6.30;4.63;;;23.00;99.90;;;;;;5058327;28;20028;-68
2021/08/04 11:34:17;;;;;;;7.28;5.68;;;23.00;99.90;;;;;;5052217;28;20021;-68
2021/08/04 11:36:45;;;;;;;5.38;4.43;;;23.10;99.90;;;;;;5036479;28;20029;-69
2021/08/04 11:39:10;;;;;;;6.55;4.80;;;23.50;99.90;;;;;;5060885;28;20389;-68
2021/08/04 11:41:42;;;;;;;7.28;5.13;;;23.70;99.90;;;;;;5051135;28;20029;-68
2021/08/04 11:44:40;;;;;;;7.78;5.03;;;23.90;99.90;;;;;;5050083;28;20048;-72
2021/08/04 11:47:09;;;;;;;7.05;5.93;;;24.20;99.90;;;;;;5059138;28;20044;-69
2021/08/04 11:49:39;;;;;;;5.90;5.40;;;24.40;99.90;;;;;;5055096;28;20083;-70
2021/08/04 11:52:13;;;;;;;6.50;5.03;;;24.60;99.90;;;;;;5051800;28;20035;-71
2021/08/04 11:54:58;;;;;;;8.00;6.18;;;24.50;99.90;;;;;;5057979;28;20058;-72
2021/08/04 11:57:55;;;;;;;6.68;5.60;;;24.70;99.70;;;;;;5057769;28;20305;-73
2021/08/04 12:00:23;;;;;;;9.80;5.45;;;24.60;99.30;;;;;;5059401;28;20427;-68
2021/08/04 12:02:49;;;;;;;8.65;5.38;;;24.40;99.90;;;;;;5058296;28;20017;-68
2021/08/04 12:05:18;;;;;;;6.60;6.00;;;24.60;99.90;;;;;;5059634;28;20044;-69
2021/08/04 12:07:44;;;;;;;6.55;5.85;;;24.70;98.50;;;;;;5047732;28;20017;-68
2021/08/04 12:10:19;;;;;;;8.85;6.25;;;25.00;98.30;;;;;;5061946;28;20029;-68
2021/08/04 12:12:49;;;;;;;9.48;4.20;;;25.00;99.90;;;;;;5058914;28;20064;-67
2021/08/04 12:15:21;;;;;;;8.02;6.60;;;24.60;99.70;;;;;;5058512;28;20122;-67
2021/08/04 12:17:49;;;;;;;4.80;4.40;;;24.40;98.90;;;;;;5065299;28;20025;-67
2021/08/04 12:20:20;;;;;;;4.70;4.30;;;24.20;99.90;;;;;;5051976;28;20045;-68
2021/08/04 12:23:03;;;;;;;5.13;4.47;;;24.10;99.90;;;;;;5052214;28;20040;-67
2021/08/04 12:25:30;;;;;;;5.60;3.55;;;23.90;99.90;;;;;;5062957;28;20032;-67
2021/08/04 12:28:00;;;;;;;5.25;3.83;;;24.00;99.90;;;;;;5054525;28;20029;-68
2021/08/04 12:30:33;;;;;;;4.43;4.03;;;24.20;99.90;;;;;;5047426;28;20071;-68
2021/08/04 12:33:12;;;;;;;5.30;4.80;;;24.50;99.90;;;;;;5052872;28;20013;-67
2021/08/04 12:35:45;;;;;;;10.57;6.00;;;24.80;99.90;;;;;;5047292;28;20033;-68
2021/08/04 12:38:15;;;;;;;;;;;25.20;99.90;;;;;;5049182;28;20048;-67